PDT,Max TemperatureF,Mean TemperatureF,Min TemperatureF,Max Dew PointF,MeanDew PointF,Min DewpointF,Max Humidity, Mean Humidity, Min Humidity, Max Sea Level PressureIn, Mean Sea Level PressureIn, Min Sea Level PressureIn, Max VisibilityMiles, Mean VisibilityMiles, Min VisibilityMiles, Max Wind SpeedMPH, Mean Wind SpeedMPH, Max Gust SpeedMPH,PrecipitationIn, CloudCover, Events, WindDirDegrees
2013-8-1,64,62,60,61,60,59,100,94,83,30.09,30.08,30.06,10,9,8,9,8,,0.00,8,,226
2013-8-2,68,64,60,64,58,57,94,78,68,30.15,30.13,30.12,10,10,10,13,7,,0.00,8,,227
2013-8-3,80,66,53,64,61,54,100,81,58,30.12,30.09,30.04,10,10,10,7,3,,0.00,3,,237
2013-8-4,87,71,55,70,65,55,100,71,49,30.04,29.97,29.88,10,10,10,10,4,17,0.00,0,,212
2013-8-5,87,73,59,68,65,59,100,67,46,30.00,29.96,29.89,10,10,10,13,7,20,0.00,1,,214
2013-8-6,91,75,59,66,62,54,100,61,29,29.99,29.95,29.88,10,10,10,15,6,22,0.00,0,,222
2013-8-7,84,70,55,63,60,55,100,60,42,30.01,29.97,29.92,10,10,10,17,8,23,0.00,4,,224
2013-8-8,77,70,62,64,62,61,94,73,61,30.03,29.98,29.91,10,10,10,17,12,24,0.00,5,,214
2013-8-9,80,71,62,64,63,63,100,77,58,30.12,29.93,29.83,10,10,10,17,7,24,0.00,5,,232
2013-8-10,80,70,60,68,65,61,100,83,61,30.00,29.98,29.94,10,9,7,10,5,,0.00,7,,230
2013-8-11,77,70,64,64,63,63,94,75,61,30.07,30.03,29.98,10,10,10,14,8,21,0.00,4,,221
2013-8-12,80,70,59,64,62,59,100,75,54,30.06,30.03,29.99,10,10,10,15,7,21,0.00,4,,232
2013-8-13,87,73,59,63,60,57,100,63,35,30.11,30.03,29.94,10,10,10,13,6,18,0.00,2,,218
2013-8-14,84,70,57,64,60,55,100,67,37,29.98,29.95,29.93,10,10,10,12,4,,0.00,8,,230
2013-8-15,84,74,64,66,65,61,100,70,51,29.97,29.95,29.94,10,10,10,17,6,20,0.00,7,,225
2013-8-16,86,76,66,72,68,66,100,83,58,30.01,29.99,29.97,10,10,9,15,3,22,0.00,6,Rain,240
2013-8-17,84,74,64,61,61,59,88,61,42,30.09,30.04,30.00,10,10,10,13,7,21,0.00,3,,229
2013-8-18,84,74,64,64,62,55,100,63,39,30.14,30.09,30.03,10,10,10,15,9,22,0.00,0,,226
2013-8-19,84,66,57,64,61,57,100,80,42,30.09,30.08,30.03,10,10,10,15,7,21,0.00,1,,232
2013-8-20,82,70,59,61,60,59,100,66,48,30.13,30.07,29.98,10,10,10,14,7,20,0.00,0,,224
2013-8-21,91,72,53,59,55,52,100,62,27,30.02,29.95,29.86,10,10,10,12,4,17,0.00,6,,132
2013-8-22,78,68,60,66,60,55,100,71,60,29.92,29.89,29.86,10,10,10,4,2,,0.00,7,Rain,295
2013-8-23,75,70,64,64,61,57,100,76,53,29.94,29.91,29.89,10,10,10,14,11,21,0.00,6,,214
2013-8-24,78,70,62,63,60,55,100,68,47,29.91,29.89,29.85,10,10,10,15,8,21,0.00,5,,223
2013-8-25,71,66,60,64,62,59,100,89,78,29.94,29.92,29.91,10,10,10,12,3,,0.00,7,Rain,233
2013-8-26,78,70,62,64,62,57,100,75,47,29.95,29.93,29.91,10,10,10,8,3,,0.00,6,,236
2013-8-27,86,73,60,64,61,59,100,67,40,29.97,29.88,29.78,10,10,10,10,4,17,0.00,4,,51
2013-8-28,84,73,62,68,65,63,100,73,54,29.89,29.87,29.84,10,10,10,7,3,,0.00,6,,249
2013-8-29,78,71,64,70,68,64,100,90,65,30.01,29.96,29.87,10,10,8,7,2,,0.00,8,Rain,325
2013-8-30,82,73,64,70,65,63,100,81,51,30.17,30.12,30.04,10,10,7,7,2,,0.00,5,,245
2013-8-31,89,73,57,63,61,57,100,58,36,30.03,29.91,29.81,10,10,10,15,6,23,0.00,0,,48